sensor_id;sensor_type;location;lat;lon;timestamp;pressure;altitude;pressure_sealevel;temperature;humidity
53262;BME280;39658;51.090;-1.786;2022-08-21T00:00:43;101008.13;;;14.28;90.99
53262;BME280;39658;51.090;-1.786;2022-08-21T00:03:11;101011.00;;;14.19;90.51
53262;BME280;39658;51.090;-1.786;2022-08-21T00:05:40;101006.69;;;14.01;90.05
53262;BME280;39658;51.090;-1.786;2022-08-21T00:08:07;101004.19;;;13.92;90.44
53262;BME280;39658;51.090;-1.786;2022-08-21T00:10:34;100994.81;;;13.88;91.73
53262;BME280;39658;51.090;-1.786;2022-08-21T00:13:02;100991.16;;;13.89;91.32
53262;BME280;39658;51.090;-1.786;2022-08-21T00:15:34;100977.63;;;13.82;91.50
53262;BME280;39658;51.090;-1.786;2022-08-21T00:18:02;100977.47;;;13.75;92.18
53262;BME280;39658;51.090;-1.786;2022-08-21T00:20:29;100978.47;;;13.66;92.74
53262;BME280;39658;51.090;-1.786;2022-08-21T00:22:56;100975.47;;;13.61;92.40
53262;BME280;39658;51.090;-1.786;2022-08-21T00:25:24;100974.31;;;13.64;93.63
53262;BME280;39658;51.090;-1.786;2022-08-21T00:27:51;100975.13;;;13.64;93.80
53262;BME280;39658;51.090;-1.786;2022-08-21T00:30:19;100977.63;;;13.74;93.86
53262;BME280;39658;51.090;-1.786;2022-08-21T00:32:47;100976.81;;;13.73;93.33
53262;BME280;39658;51.090;-1.786;2022-08-21T00:35:18;100982.31;;;13.72;94.25
53262;BME280;39658;51.090;-1.786;2022-08-21T00:37:45;100994.84;;;13.71;94.02
53262;BME280;39658;51.090;-1.786;2022-08-21T00:40:16;100989.34;;;13.65;94.53
53262;BME280;39658;51.090;-1.786;2022-08-21T00:42:44;100989.34;;;13.73;94.36
53262;BME280;39658;51.090;-1.786;2022-08-21T00:45:11;100986.66;;;13.73;93.95
53262;BME280;39658;51.090;-1.786;2022-08-21T00:47:38;100984.66;;;13.75;93.20
53262;BME280;39658;51.090;-1.786;2022-08-21T00:50:08;100979.31;;;13.75;93.96
53262;BME280;39658;51.090;-1.786;2022-08-21T00:52:36;100977.44;;;13.84;94.19
53262;BME280;39658;51.090;-1.786;2022-08-21T00:55:05;100981.63;;;13.78;93.49
53262;BME280;39658;51.090;-1.786;2022-08-21T00:57:38;100982.81;;;13.84;93.94
53262;BME280;39658;51.090;-1.786;2022-08-21T01:00:08;100978.94;;;13.86;93.51
53262;BME280;39658;51.090;-1.786;2022-08-21T01:02:35;100979.78;;;13.87;93.96
53262;BME280;39658;51.090;-1.786;2022-08-21T01:05:03;100984.97;;;13.88;93.70
53262;BME280;39658;51.090;-1.786;2022-08-21T01:07:31;100980.44;;;14.05;92.14
53262;BME280;39658;51.090;-1.786;2022-08-21T01:09:58;100982.44;;;14.03;92.14
53262;BME280;39658;51.090;-1.786;2022-08-21T01:12:25;100975.94;;;13.81;92.77
53262;BME280;39658;51.090;-1.786;2022-08-21T01:14:52;100989.34;;;13.65;92.97
53262;BME280;39658;51.090;-1.786;2022-08-21T01:17:20;100987.16;;;13.52;94.17
53262;BME280;39658;51.090;-1.786;2022-08-21T01:19:47;100983.31;;;13.46;94.61
53262;BME280;39658;51.090;-1.786;2022-08-21T01:22:15;100982.81;;;13.43;94.93
53262;BME280;39658;51.090;-1.786;2022-08-21T01:24:42;100979.31;;;13.51;95.14
53262;BME280;39658;51.090;-1.786;2022-08-21T01:27:09;100985.66;;;13.41;94.71
53262;BME280;39658;51.090;-1.786;2022-08-21T01:29:38;100991.16;;;13.40;95.08
53262;BME280;39658;51.090;-1.786;2022-08-21T01:32:11;100981.31;;;13.32;95.30
53262;BME280;39658;51.090;-1.786;2022-08-21T01:34:42;100979.13;;;13.28;95.46
53262;BME280;39658;51.090;-1.786;2022-08-21T01:37:09;100981.47;;;13.23;95.68
53262;BME280;39658;51.090;-1.786;2022-08-21T01:39:39;100980.81;;;13.29;95.84
53262;BME280;39658;51.090;-1.786;2022-08-21T01:42:06;100977.81;;;13.32;95.68
53262;BME280;39658;51.090;-1.786;2022-08-21T01:44:33;100975.78;;;13.34;95.91
53262;BME280;39658;51.090;-1.786;2022-08-21T01:47:06;100973.28;;;13.32;95.34
53262;BME280;39658;51.090;-1.786;2022-08-21T01:49:34;100973.63;;;13.29;95.52
53262;BME280;39658;51.090;-1.786;2022-08-21T01:52:01;100974.63;;;13.28;96.21
53262;BME280;39658;51.090;-1.786;2022-08-21T01:54:29;100975.13;;;13.32;96.06
53262;BME280;39658;51.090;-1.786;2022-08-21T01:56:58;100982.47;;;13.46;96.11
53262;BME280;39658;51.090;-1.786;2022-08-21T01:59:26;100992.84;;;13.49;95.63
53262;BME280;39658;51.090;-1.786;2022-08-21T02:01:53;100995.00;;;13.45;95.31
53262;BME280;39658;51.090;-1.786;2022-08-21T02:04:20;100992.00;;;13.40;95.79
53262;BME280;39658;51.090;-1.786;2022-08-21T02:06:48;100992.34;;;13.54;95.62
53262;BME280;39658;51.090;-1.786;2022-08-21T02:09:15;100994.84;;;13.79;95.30
53262;BME280;39658;51.090;-1.786;2022-08-21T02:11:42;100991.00;;;13.74;95.14
53262;BME280;39658;51.090;-1.786;2022-08-21T02:14:13;100993.53;;;13.67;94.58
53262;BME280;39658;51.090;-1.786;2022-08-21T02:16:42;100989.19;;;13.66;95.01
53262;BME280;39658;51.090;-1.786;2022-08-21T02:19:09;100978.28;;;13.52;94.97
53262;BME280;39658;51.090;-1.786;2022-08-21T02:21:36;100979.97;;;13.53;94.73
53262;BME280;39658;51.090;-1.786;2022-08-21T02:24:04;100970.94;;;13.37;95.59
53262;BME280;39658;51.090;-1.786;2022-08-21T02:26:30;100972.63;;;13.22;95.82
53262;BME280;39658;51.090;-1.786;2022-08-21T02:28:57;100969.03;;;13.13;96.34
53262;BME280;39658;51.090;-1.786;2022-08-21T02:31:26;100966.53;;;13.04;96.14
53262;BME280;39658;51.090;-1.786;2022-08-21T02:33:53;100965.19;;;13.08;97.18
53262;BME280;39658;51.090;-1.786;2022-08-21T02:36:20;100957.19;;;13.16;96.96
53262;BME280;39658;51.090;-1.786;2022-08-21T02:38:46;100961.03;;;13.13;96.46
53262;BME280;39658;51.090;-1.786;2022-08-21T02:41:17;100958.34;;;13.05;96.62
53262;BME280;39658;51.090;-1.786;2022-08-21T02:43:45;100950.31;;;12.97;96.02
53262;BME280;39658;51.090;-1.786;2022-08-21T02:46:14;100962.50;;;12.92;95.59
53262;BME280;39658;51.090;-1.786;2022-08-21T02:48:43;100942.47;;;12.88;95.96
53262;BME280;39658;51.090;-1.786;2022-08-21T02:51:11;100955.94;;;12.78;96.64
53262;BME280;39658;51.090;-1.786;2022-08-21T02:53:39;100961.78;;;12.73;96.96
53262;BME280;39658;51.090;-1.786;2022-08-21T02:56:09;100968.13;;;12.72;97.54
53262;BME280;39658;51.090;-1.786;2022-08-21T02:58:38;100973.94;;;12.68;97.77
53262;BME280;39658;51.090;-1.786;2022-08-21T03:01:05;100972.50;;;12.81;98.21
53262;BME280;39658;51.090;-1.786;2022-08-21T03:03:35;100982.47;;;12.79;98.26
53262;BME280;39658;51.090;-1.786;2022-08-21T03:06:05;100982.88;;;12.84;97.71
53262;BME280;39658;51.090;-1.786;2022-08-21T03:08:33;100993.16;;;12.71;97.35
53262;BME280;39658;51.090;-1.786;2022-08-21T03:11:00;100984.25;;;12.54;97.11
53262;BME280;39658;51.090;-1.786;2022-08-21T03:13:27;100989.97;;;12.34;97.98
53262;BME280;39658;51.090;-1.786;2022-08-21T03:15:55;100993.28;;;12.28;97.86
53262;BME280;39658;51.090;-1.786;2022-08-21T03:18:22;100991.28;;;12.30;98.29
53262;BME280;39658;51.090;-1.786;2022-08-21T03:20:49;100984.75;;;12.24;98.12
53262;BME280;39658;51.090;-1.786;2022-08-21T03:23:17;100974.78;;;12.26;98.50
53262;BME280;39658;51.090;-1.786;2022-08-21T03:25:46;100984.81;;;12.32;98.19
53262;BME280;39658;51.090;-1.786;2022-08-21T03:28:15;100977.31;;;12.36;98.33
53262;BME280;39658;51.090;-1.786;2022-08-21T03:30:43;100973.44;;;12.30;98.11
53262;BME280;39658;51.090;-1.786;2022-08-21T03:33:11;100964.59;;;12.30;98.00
53262;BME280;39658;51.090;-1.786;2022-08-21T03:35:38;100964.28;;;12.33;98.27
53262;BME280;39658;51.090;-1.786;2022-08-21T03:38:06;100958.56;;;12.53;98.49
53262;BME280;39658;51.090;-1.786;2022-08-21T03:40:34;100951.91;;;12.58;98.65
53262;BME280;39658;51.090;-1.786;2022-08-21T03:43:01;100954.22;;;12.61;98.82
53262;BME280;39658;51.090;-1.786;2022-08-21T03:45:28;100948.06;;;12.60;98.28
53262;BME280;39658;51.090;-1.786;2022-08-21T03:47:56;100950.38;;;12.55;98.11
53262;BME280;39658;51.090;-1.786;2022-08-21T03:50:25;100953.56;;;12.59;98.18
53262;BME280;39658;51.090;-1.786;2022-08-21T03:52:52;100948.72;;;12.54;97.89
53262;BME280;39658;51.090;-1.786;2022-08-21T03:55:19;100939.06;;;12.61;97.90
53262;BME280;39658;51.090;-1.786;2022-08-21T03:57:47;100941.06;;;12.67;98.43
53262;BME280;39658;51.090;-1.786;2022-08-21T04:00:16;100933.91;;;12.68;98.03
53262;BME280;39658;51.090;-1.786;2022-08-21T04:02:43;100938.09;;;12.78;97.79
53262;BME280;39658;51.090;-1.786;2022-08-21T04:05:11;100952.44;;;12.77;97.26
53262;BME280;39658;51.090;-1.786;2022-08-21T04:07:39;100966.47;;;12.79;97.61
53262;BME280;39658;51.090;-1.786;2022-08-21T04:10:07;100966.25;;;12.65;97.41
53262;BME280;39658;51.090;-1.786;2022-08-21T04:12:34;100975.75;;;12.59;98.64
53262;BME280;39658;51.090;-1.786;2022-08-21T04:15:03;100978.09;;;12.62;98.27
53262;BME280;39658;51.090;-1.786;2022-08-21T04:17:29;100966.72;;;12.52;98.28
53262;BME280;39658;51.090;-1.786;2022-08-21T04:19:56;100965.53;;;12.46;98.13
53262;BME280;39658;51.090;-1.786;2022-08-21T04:22:24;100964.69;;;12.46;98.35
53262;BME280;39658;51.090;-1.786;2022-08-21T04:24:51;100955.38;;;12.50;99.22
53262;BME280;39658;51.090;-1.786;2022-08-21T04:27:17;100954.88;;;12.54;99.01
53262;BME280;39658;51.090;-1.786;2022-08-21T04:29:44;100952.06;;;12.56;98.68
53262;BME280;39658;51.090;-1.786;2022-08-21T04:32:12;100967.91;;;12.58;98.38
53262;BME280;39658;51.090;-1.786;2022-08-21T04:34:39;100965.56;;;12.54;98.66
53262;BME280;39658;51.090;-1.786;2022-08-21T04:37:06;100970.38;;;12.51;98.98
53262;BME280;39658;51.090;-1.786;2022-08-21T04:39:33;100967.59;;;12.61;98.38
53262;BME280;39658;51.090;-1.786;2022-08-21T04:41:59;100961.41;;;12.60;97.72
53262;BME280;39658;51.090;-1.786;2022-08-21T04:44:26;100961.19;;;12.45;97.23
53262;BME280;39658;51.090;-1.786;2022-08-21T04:46:53;100968.47;;;12.35;98.06
53262;BME280;39658;51.090;-1.786;2022-08-21T04:49:21;100977.44;;;12.26;97.96
53262;BME280;39658;51.090;-1.786;2022-08-21T04:51:48;100980.94;;;12.27;98.54
53262;BME280;39658;51.090;-1.786;2022-08-21T04:54:18;100986.13;;;12.28;98.22
53262;BME280;39658;51.090;-1.786;2022-08-21T04:56:49;100978.97;;;12.37;98.62
53262;BME280;39658;51.090;-1.786;2022-08-21T04:59:20;100993.91;;;12.47;98.85
53262;BME280;39658;51.090;-1.786;2022-08-21T05:01:49;100998.09;;;12.50;98.61
53262;BME280;39658;51.090;-1.786;2022-08-21T05:04:18;101008.59;;;12.51;98.26
53262;BME280;39658;51.090;-1.786;2022-08-21T05:06:51;101003.94;;;12.53;98.32
53262;BME280;39658;51.090;-1.786;2022-08-21T05:09:19;101000.28;;;12.63;98.58
53262;BME280;39658;51.090;-1.786;2022-08-21T05:11:47;101012.31;;;12.67;98.20
53262;BME280;39658;51.090;-1.786;2022-08-21T05:14:14;101025.38;;;12.78;98.06
53262;BME280;39658;51.090;-1.786;2022-08-21T05:16:41;101017.38;;;12.78;97.97
53262;BME280;39658;51.090;-1.786;2022-08-21T05:19:09;101027.25;;;12.85;97.39
53262;BME280;39658;51.090;-1.786;2022-08-21T05:21:38;101029.09;;;12.85;97.42
53262;BME280;39658;51.090;-1.786;2022-08-21T05:24:08;101031.09;;;12.83;97.37
53262;BME280;39658;51.090;-1.786;2022-08-21T05:26:35;101036.13;;;12.86;97.21
53262;BME280;39658;51.090;-1.786;2022-08-21T05:29:02;101040.63;;;12.85;96.89
53262;BME280;39658;51.090;-1.786;2022-08-21T05:31:29;101027.28;;;12.94;97.11
53262;BME280;39658;51.090;-1.786;2022-08-21T05:33:56;101035.28;;;12.85;97.05
53262;BME280;39658;51.090;-1.786;2022-08-21T05:36:23;101028.25;;;12.84;96.62
53262;BME280;39658;51.090;-1.786;2022-08-21T05:38:50;101029.94;;;12.85;97.38
53262;BME280;39658;51.090;-1.786;2022-08-21T05:41:18;101020.94;;;12.86;96.66
53262;BME280;39658;51.090;-1.786;2022-08-21T05:43:45;101012.41;;;12.91;96.56
53262;BME280;39658;51.090;-1.786;2022-08-21T05:46:12;101015.28;;;12.98;96.34
53262;BME280;39658;51.090;-1.786;2022-08-21T05:48:39;101003.44;;;13.08;96.04
53262;BME280;39658;51.090;-1.786;2022-08-21T05:51:07;101003.34;;;13.26;95.26
53262;BME280;39658;51.090;-1.786;2022-08-21T05:53:35;100992.84;;;13.41;93.79
53262;BME280;39658;51.090;-1.786;2022-08-21T05:56:02;100995.16;;;13.52;92.98
53262;BME280;39658;51.090;-1.786;2022-08-21T05:58:32;100984.84;;;13.65;92.30
53262;BME280;39658;51.090;-1.786;2022-08-21T06:01:01;100983.13;;;13.80;91.78
53262;BME280;39658;51.090;-1.786;2022-08-21T06:03:30;100984.59;;;13.99;91.06
53262;BME280;39658;51.090;-1.786;2022-08-21T06:05:57;100986.44;;;14.07;90.89
53262;BME280;39658;51.090;-1.786;2022-08-21T06:08:25;100984.47;;;14.01;90.75
53262;BME280;39658;51.090;-1.786;2022-08-21T06:10:53;100984.13;;;13.79;91.64
53262;BME280;39658;51.090;-1.786;2022-08-21T06:13:21;100988.34;;;13.74;92.39
53262;BME280;39658;51.090;-1.786;2022-08-21T06:15:59;100994.19;;;13.61;92.31
53262;BME280;39658;51.090;-1.786;2022-08-21T06:18:26;100995.16;;;13.52;93.21
53262;BME280;39658;51.090;-1.786;2022-08-21T06:20:53;101001.34;;;13.36;94.13
53262;BME280;39658;51.090;-1.786;2022-08-21T06:23:20;101006.69;;;13.36;93.89
53262;BME280;39658;51.090;-1.786;2022-08-21T06:25:46;101006.53;;;13.30;94.38
53262;BME280;39658;51.090;-1.786;2022-08-21T06:28:13;101000.03;;;13.32;95.15
53262;BME280;39658;51.090;-1.786;2022-08-21T06:30:40;101001.69;;;13.41;94.38
53262;BME280;39658;51.090;-1.786;2022-08-21T06:33:08;101003.88;;;13.46;93.95
53262;BME280;39658;51.090;-1.786;2022-08-21T06:35:35;101001.03;;;13.56;93.68
53262;BME280;39658;51.090;-1.786;2022-08-21T06:38:02;100993.50;;;13.59;92.66
53262;BME280;39658;51.090;-1.786;2022-08-21T06:40:30;100983.66;;;13.68;92.48
53262;BME280;39658;51.090;-1.786;2022-08-21T06:42:58;100969.94;;;13.71;92.89
53262;BME280;39658;51.090;-1.786;2022-08-21T06:45:31;100975.28;;;13.79;92.25
53262;BME280;39658;51.090;-1.786;2022-08-21T06:47:57;100968.41;;;13.85;92.02
53262;BME280;39658;51.090;-1.786;2022-08-21T06:50:26;100969.41;;;13.92;91.60
53262;BME280;39658;51.090;-1.786;2022-08-21T06:52:58;100966.56;;;13.93;91.72
53262;BME280;39658;51.090;-1.786;2022-08-21T06:55:26;100971.56;;;14.04;91.18
53262;BME280;39658;51.090;-1.786;2022-08-21T06:57:52;100961.22;;;14.01;90.37
53262;BME280;39658;51.090;-1.786;2022-08-21T07:00:19;100966.38;;;14.11;90.89
53262;BME280;39658;51.090;-1.786;2022-08-21T07:02:46;100950.81;;;14.15;89.88
53262;BME280;39658;51.090;-1.786;2022-08-21T07:05:13;100943.75;;;14.22;89.87
53262;BME280;39658;51.090;-1.786;2022-08-21T07:07:42;100933.66;;;14.32;89.53
53262;BME280;39658;51.090;-1.786;2022-08-21T07:10:08;100932.31;;;14.44;88.45
53262;BME280;39658;51.090;-1.786;2022-08-21T07:12:35;100942.91;;;14.68;88.21
53262;BME280;39658;51.090;-1.786;2022-08-21T07:15:03;100941.09;;;14.92;86.81
53262;BME280;39658;51.090;-1.786;2022-08-21T07:17:30;100942.13;;;15.14;86.17
53262;BME280;39658;51.090;-1.786;2022-08-21T07:19:56;100945.00;;;15.50;84.81
53262;BME280;39658;51.090;-1.786;2022-08-21T07:22:23;100941.69;;;15.71;83.08
53262;BME280;39658;51.090;-1.786;2022-08-21T07:24:54;100927.06;;;15.88;81.85
53262;BME280;39658;51.090;-1.786;2022-08-21T07:27:20;100934.41;;;16.09;81.11
53262;BME280;39658;51.090;-1.786;2022-08-21T07:29:47;100940.06;;;16.14;80.92
53262;BME280;39658;51.090;-1.786;2022-08-21T07:32:14;100935.31;;;16.30;80.42
53262;BME280;39658;51.090;-1.786;2022-08-21T07:34:41;100934.03;;;16.41;79.93
53262;BME280;39658;51.090;-1.786;2022-08-21T07:37:08;100939.94;;;16.51;79.67
53262;BME280;39658;51.090;-1.786;2022-08-21T07:39:35;100942.25;;;16.54;78.73
53262;BME280;39658;51.090;-1.786;2022-08-21T07:42:04;100956.06;;;17.02;77.71
53262;BME280;39658;51.090;-1.786;2022-08-21T07:44:31;100960.03;;;17.49;75.05
53262;BME280;39658;51.090;-1.786;2022-08-21T07:46:59;100974.44;;;18.12;72.81
53262;BME280;39658;51.090;-1.786;2022-08-21T07:49:26;100970.22;;;18.37;70.25
53262;BME280;39658;51.090;-1.786;2022-08-21T07:51:53;100967.63;;;18.16;70.70
53262;BME280;39658;51.090;-1.786;2022-08-21T07:54:20;100978.59;;;18.56;69.71
53262;BME280;39658;51.090;-1.786;2022-08-21T07:56:47;100974.03;;;18.56;68.96
53262;BME280;39658;51.090;-1.786;2022-08-21T07:59:15;100976.53;;;18.58;68.87
53262;BME280;39658;51.090;-1.786;2022-08-21T08:01:42;100981.53;;;19.15;67.84
53262;BME280;39658;51.090;-1.786;2022-08-21T08:04:08;100974.16;;;19.83;65.63
53262;BME280;39658;51.090;-1.786;2022-08-21T08:06:35;100985.34;;;19.93;64.53
53262;BME280;39658;51.090;-1.786;2022-08-21T08:09:02;100993.63;;;19.32;67.13
53262;BME280;39658;51.090;-1.786;2022-08-21T08:11:29;100992.69;;;18.16;70.12
53262;BME280;39658;51.090;-1.786;2022-08-21T08:13:56;100997.72;;;18.26;71.02
53262;BME280;39658;51.090;-1.786;2022-08-21T08:16:26;101000.38;;;18.20;71.33
53262;BME280;39658;51.090;-1.786;2022-08-21T08:18:52;100999.69;;;17.62;71.75
53262;BME280;39658;51.090;-1.786;2022-08-21T08:21:20;101005.13;;;17.47;72.36
53262;BME280;39658;51.090;-1.786;2022-08-21T08:23:47;100999.81;;;17.53;72.51
53262;BME280;39658;51.090;-1.786;2022-08-21T08:26:14;100994.31;;;17.62;72.48
53262;BME280;39658;51.090;-1.786;2022-08-21T08:28:42;101015.19;;;17.81;71.50
53262;BME280;39658;51.090;-1.786;2022-08-21T08:31:09;101024.97;;;18.10;70.83
53262;BME280;39658;51.090;-1.786;2022-08-21T08:33:37;101017.63;;;18.32;70.35
53262;BME280;39658;51.090;-1.786;2022-08-21T08:36:04;101014.28;;;18.58;69.36
53262;BME280;39658;51.090;-1.786;2022-08-21T08:38:31;101027.72;;;18.86;68.05
53262;BME280;39658;51.090;-1.786;2022-08-21T08:41:02;101027.59;;;19.07;68.60
53262;BME280;39658;51.090;-1.786;2022-08-21T08:43:33;101028.06;;;19.30;67.07
53262;BME280;39658;51.090;-1.786;2022-08-21T08:46:03;101032.09;;;19.54;66.96
53262;BME280;39658;51.090;-1.786;2022-08-21T08:48:39;101024.63;;;19.96;65.99
53262;BME280;39658;51.090;-1.786;2022-08-21T08:51:11;101017.16;;;20.11;63.56
53262;BME280;39658;51.090;-1.786;2022-08-21T08:53:48;101020.22;;;20.34;63.87
53262;BME280;39658;51.090;-1.786;2022-08-21T08:56:19;101014.38;;;20.57;62.05
53262;BME280;39658;51.090;-1.786;2022-08-21T08:58:48;101021.78;;;21.33;60.92
53262;BME280;39658;51.090;-1.786;2022-08-21T09:01:18;101020.41;;;21.49;58.67
53262;BME280;39658;51.090;-1.786;2022-08-21T09:03:47;101008.69;;;21.17;57.88
53262;BME280;39658;51.090;-1.786;2022-08-21T09:06:27;101002.25;;;21.24;58.41
53262;BME280;39658;51.090;-1.786;2022-08-21T09:09:14;101001.38;;;23.33;52.45
53262;BME280;39658;51.090;-1.786;2022-08-21T09:11:49;101002.19;;;25.09;48.44
53262;BME280;39658;51.090;-1.786;2022-08-21T09:14:26;100993.38;;;25.64;44.65
53262;BME280;39658;51.090;-1.786;2022-08-21T09:17:03;100991.16;;;27.47;40.45
53262;BME280;39658;51.090;-1.786;2022-08-21T09:19:46;100991.41;;;27.73;41.53
53262;BME280;39658;51.090;-1.786;2022-08-21T09:22:19;100990.00;;;29.22;36.63
53262;BME280;39658;51.090;-1.786;2022-08-21T09:24:56;100985.66;;;30.03;34.86
53262;BME280;39658;51.090;-1.786;2022-08-21T09:27:28;100978.63;;;31.15;32.26
53262;BME280;39658;51.090;-1.786;2022-08-21T09:29:56;100983.47;;;28.56;36.71
53262;BME280;39658;51.090;-1.786;2022-08-21T09:32:26;100971.13;;;29.46;35.23
53262;BME280;39658;51.090;-1.786;2022-08-21T09:35:05;100963.09;;;30.91;33.09
53262;BME280;39658;51.090;-1.786;2022-08-21T09:37:35;100960.31;;;32.03;30.76
53262;BME280;39658;51.090;-1.786;2022-08-21T09:40:21;100964.81;;;29.66;34.25
53262;BME280;39658;51.090;-1.786;2022-08-21T09:42:56;100960.00;;;28.23;36.77
53262;BME280;39658;51.090;-1.786;2022-08-21T09:45:23;100956.63;;;27.63;38.76
53262;BME280;39658;51.090;-1.786;2022-08-21T09:47:50;100952.69;;;25.74;42.87
53262;BME280;39658;51.090;-1.786;2022-08-21T09:50:21;100966.03;;;26.09;41.30
53262;BME280;39658;51.090;-1.786;2022-08-21T09:52:50;100967.38;;;26.29;42.87
53262;BME280;39658;51.090;-1.786;2022-08-21T09:55:22;100970.28;;;25.67;41.53
53262;BME280;39658;51.090;-1.786;2022-08-21T09:58:11;100975.97;;;24.51;43.93
53262;BME280;39658;51.090;-1.786;2022-08-21T10:00:38;100976.09;;;24.45;43.44
53262;BME280;39658;51.090;-1.786;2022-08-21T10:03:10;100980.56;;;25.03;42.31
53262;BME280;39658;51.090;-1.786;2022-08-21T10:05:40;100975.84;;;24.98;43.26
53262;BME280;39658;51.090;-1.786;2022-08-21T10:08:18;100970.44;;;24.75;43.41
53262;BME280;39658;51.090;-1.786;2022-08-21T10:10:44;100974.56;;;23.90;45.49
53262;BME280;39658;51.090;-1.786;2022-08-21T10:13:16;100980.00;;;24.25;44.58
53262;BME280;39658;51.090;-1.786;2022-08-21T10:15:51;100978.25;;;24.43;43.65
53262;BME280;39658;51.090;-1.786;2022-08-21T10:18:26;100974.75;;;24.59;43.28
53262;BME280;39658;51.090;-1.786;2022-08-21T10:21:02;100967.59;;;25.38;42.05
53262;BME280;39658;51.090;-1.786;2022-08-21T10:23:46;100971.28;;;25.32;40.83
53262;BME280;39658;51.090;-1.786;2022-08-21T10:26:26;100972.25;;;25.88;39.65
53262;BME280;39658;51.090;-1.786;2022-08-21T10:29:01;100966.84;;;25.93;39.12
53262;BME280;39658;51.090;-1.786;2022-08-21T10:31:34;100966.72;;;25.83;39.71
53262;BME280;39658;51.090;-1.786;2022-08-21T10:34:15;100964.97;;;26.76;37.67
53262;BME280;39658;51.090;-1.786;2022-08-21T10:36:52;100955.50;;;29.52;33.97
53262;BME280;39658;51.090;-1.786;2022-08-21T10:39:27;100967.09;;;28.19;35.63
53262;BME280;39658;51.090;-1.786;2022-08-21T10:42:18;100957.34;;;29.16;35.57
53262;BME280;39658;51.090;-1.786;2022-08-21T10:44:56;100965.34;;;29.83;32.88
53262;BME280;39658;51.090;-1.786;2022-08-21T10:47:32;100962.84;;;31.65;30.03
53262;BME280;39658;51.090;-1.786;2022-08-21T10:50:06;100963.91;;;31.69;28.52
53262;BME280;39658;51.090;-1.786;2022-08-21T10:52:47;100964.09;;;32.79;28.19
53262;BME280;39658;51.090;-1.786;2022-08-21T10:55:19;100962.41;;;33.72;27.05
53262;BME280;39658;51.090;-1.786;2022-08-21T10:57:50;100965.75;;;32.56;28.18
53262;BME280;39658;51.090;-1.786;2022-08-21T11:00:23;100952.81;;;31.06;29.21
53262;BME280;39658;51.090;-1.786;2022-08-21T11:03:01;100950.34;;;31.05;29.55
53262;BME280;39658;51.090;-1.786;2022-08-21T11:05:33;100952.91;;;32.22;27.59
53262;BME280;39658;51.090;-1.786;2022-08-21T11:08:08;100954.13;;;33.01;27.83
53262;BME280;39658;51.090;-1.786;2022-08-21T11:10:40;100945.66;;;32.31;26.88
53262;BME280;39658;51.090;-1.786;2022-08-21T11:13:14;100949.25;;;32.32;26.14
53262;BME280;39658;51.090;-1.786;2022-08-21T11:15:55;100942.59;;;32.99;25.49
53262;BME280;39658;51.090;-1.786;2022-08-21T11:18:26;100942.19;;;31.97;26.27
53262;BME280;39658;51.090;-1.786;2022-08-21T11:21:02;100948.75;;;30.99;27.86
53262;BME280;39658;51.090;-1.786;2022-08-21T11:23:38;100950.66;;;32.29;27.59
53262;BME280;39658;51.090;-1.786;2022-08-21T11:26:10;100943.09;;;33.01;25.87
53262;BME280;39658;51.090;-1.786;2022-08-21T11:28:44;100940.75;;;33.92;24.95
53262;BME280;39658;51.090;-1.786;2022-08-21T11:31:21;100933.50;;;33.50;24.83
53262;BME280;39658;51.090;-1.786;2022-08-21T11:34:04;100940.91;;;30.07;27.85
53262;BME280;39658;51.090;-1.786;2022-08-21T11:36:44;100943.09;;;30.10;28.12
53262;BME280;39658;51.090;-1.786;2022-08-21T11:39:22;100951.88;;;29.06;30.41
53262;BME280;39658;51.090;-1.786;2022-08-21T11:42:00;100948.19;;;28.12;32.86
53262;BME280;39658;51.090;-1.786;2022-08-21T11:44:37;100945.50;;;26.67;36.33
53262;BME280;39658;51.090;-1.786;2022-08-21T11:47:12;100950.78;;;26.52;36.63
53262;BME280;39658;51.090;-1.786;2022-08-21T11:50:00;100949.78;;;26.58;37.64
53262;BME280;39658;51.090;-1.786;2022-08-21T11:52:32;100945.25;;;26.69;36.98
53262;BME280;39658;51.090;-1.786;2022-08-21T11:55:06;100952.63;;;27.49;36.21
53262;BME280;39658;51.090;-1.786;2022-08-21T11:57:39;100947.53;;;27.26;36.12
53262;BME280;39658;51.090;-1.786;2022-08-21T12:00:13;100934.16;;;27.29;35.62
53262;BME280;39658;51.090;-1.786;2022-08-21T12:02:45;100932.72;;;26.29;37.74
53262;BME280;39658;51.090;-1.786;2022-08-21T12:05:25;100936.78;;;26.27;38.05
53262;BME280;39658;51.090;-1.786;2022-08-21T12:08:02;100938.09;;;26.02;38.61
53262;BME280;39658;51.090;-1.786;2022-08-21T12:10:37;100935.69;;;26.28;38.03
53262;BME280;39658;51.090;-1.786;2022-08-21T12:13:23;100934.50;;;25.80;39.32
53262;BME280;39658;51.090;-1.786;2022-08-21T12:15:50;100937.28;;;25.35;40.85
53262;BME280;39658;51.090;-1.786;2022-08-21T12:18:22;100939.97;;;25.01;41.55
53262;BME280;39658;51.090;-1.786;2022-08-21T12:21:04;100935.94;;;24.92;41.85
53262;BME280;39658;51.090;-1.786;2022-08-21T12:23:46;100944.63;;;24.77;42.69
53262;BME280;39658;51.090;-1.786;2022-08-21T12:26:27;100945.47;;;24.49;41.58
53262;BME280;39658;51.090;-1.786;2022-08-21T12:29:21;100942.28;;;24.29;43.27
53262;BME280;39658;51.090;-1.786;2022-08-21T12:31:49;100948.34;;;24.08;43.83
53262;BME280;39658;51.090;-1.786;2022-08-21T12:34:17;100948.03;;;24.56;44.82
53262;BME280;39658;51.090;-1.786;2022-08-21T12:36:49;100945.91;;;24.58;44.21
53262;BME280;39658;51.090;-1.786;2022-08-21T12:39:23;100948.56;;;24.18;45.87
53262;BME280;39658;51.090;-1.786;2022-08-21T12:41:56;100941.09;;;24.25;45.20
53262;BME280;39658;51.090;-1.786;2022-08-21T12:44:30;100936.94;;;23.52;46.49
53262;BME280;39658;51.090;-1.786;2022-08-21T12:47:02;100934.22;;;23.40;47.48
53262;BME280;39658;51.090;-1.786;2022-08-21T12:49:32;100949.13;;;23.20;49.49
53262;BME280;39658;51.090;-1.786;2022-08-21T12:52:07;100936.91;;;22.87;50.98
53262;BME280;39658;51.090;-1.786;2022-08-21T12:54:38;100940.44;;;22.69;51.70